sensor_id;sensor_type;location;lat;lon;timestamp;P1;durP1;ratioP1;P2;durP2;ratioP2
56824;SDS011;42705;50.326;18.772;2022-12-20T00:00:59;25.07;;;10.70;;
56824;SDS011;42705;50.326;18.772;2022-12-20T00:06:21;22.10;;;9.40;;
56824;SDS011;42705;50.326;18.772;2022-12-20T00:11:43;30.68;;;11.83;;
56824;SDS011;42705;50.326;18.772;2022-12-20T00:17:04;22.82;;;9.80;;
56824;SDS011;42705;50.326;18.772;2022-12-20T00:22:25;19.95;;;9.35;;
56824;SDS011;42705;50.326;18.772;2022-12-20T00:27:46;22.63;;;10.07;;
56824;SDS011;42705;50.326;18.772;2022-12-20T00:33:08;22.05;;;9.73;;
56824;SDS011;42705;50.326;18.772;2022-12-20T00:38:29;23.75;;;10.93;;
56824;SDS011;42705;50.326;18.772;2022-12-20T00:43:51;20.95;;;8.55;;
56824;SDS011;42705;50.326;18.772;2022-12-20T00:49:13;24.45;;;11.15;;
56824;SDS011;42705;50.326;18.772;2022-12-20T00:54:35;20.50;;;8.03;;
56824;SDS011;42705;50.326;18.772;2022-12-20T00:59:56;20.25;;;10.03;;
56824;SDS011;42705;50.326;18.772;2022-12-20T01:05:18;21.85;;;9.83;;
56824;SDS011;42705;50.326;18.772;2022-12-20T01:10:39;20.05;;;9.20;;
56824;SDS011;42705;50.326;18.772;2022-12-20T01:16:04;18.32;;;8.63;;
56824;SDS011;42705;50.326;18.772;2022-12-20T01:21:27;22.58;;;10.23;;
56824;SDS011;42705;50.326;18.772;2022-12-20T01:26:49;20.72;;;9.98;;
56824;SDS011;42705;50.326;18.772;2022-12-20T01:32:12;24.90;;;11.03;;
56824;SDS011;42705;50.326;18.772;2022-12-20T01:37:33;23.75;;;10.68;;
56824;SDS011;42705;50.326;18.772;2022-12-20T01:42:54;25.60;;;11.00;;
56824;SDS011;42705;50.326;18.772;2022-12-20T01:48:17;23.57;;;10.03;;
56824;SDS011;42705;50.326;18.772;2022-12-20T01:53:44;18.75;;;9.63;;
56824;SDS011;42705;50.326;18.772;2022-12-20T01:59:07;20.08;;;9.15;;
56824;SDS011;42705;50.326;18.772;2022-12-20T02:04:29;25.10;;;11.70;;
56824;SDS011;42705;50.326;18.772;2022-12-20T02:09:50;23.75;;;10.63;;
56824;SDS011;42705;50.326;18.772;2022-12-20T02:32:53;22.50;;;10.10;;
56824;SDS011;42705;50.326;18.772;2022-12-20T02:38:25;24.23;;;10.95;;
56824;SDS011;42705;50.326;18.772;2022-12-20T02:43:54;14.53;;;7.30;;
56824;SDS011;42705;50.326;18.772;2022-12-20T02:49:38;16.73;;;8.00;;
56824;SDS011;42705;50.326;18.772;2022-12-20T02:55:04;19.35;;;8.38;;
56824;SDS011;42705;50.326;18.772;2022-12-20T03:00:30;20.85;;;9.20;;
56824;SDS011;42705;50.326;18.772;2022-12-20T03:05:54;23.30;;;10.15;;
56824;SDS011;42705;50.326;18.772;2022-12-20T03:11:16;17.40;;;8.23;;
56824;SDS011;42705;50.326;18.772;2022-12-20T03:16:39;24.43;;;9.60;;
56824;SDS011;42705;50.326;18.772;2022-12-20T03:22:00;22.17;;;10.03;;
56824;SDS011;42705;50.326;18.772;2022-12-20T03:32:47;24.37;;;10.50;;
56824;SDS011;42705;50.326;18.772;2022-12-20T03:38:09;20.13;;;9.10;;
56824;SDS011;42705;50.326;18.772;2022-12-20T03:43:30;23.02;;;10.80;;
56824;SDS011;42705;50.326;18.772;2022-12-20T03:48:52;25.10;;;11.20;;
56824;SDS011;42705;50.326;18.772;2022-12-20T03:54:14;19.80;;;9.63;;
56824;SDS011;42705;50.326;18.772;2022-12-20T03:59:55;20.23;;;9.45;;
56824;SDS011;42705;50.326;18.772;2022-12-20T04:05:16;23.87;;;10.15;;
56824;SDS011;42705;50.326;18.772;2022-12-20T04:10:38;19.90;;;8.48;;
56824;SDS011;42705;50.326;18.772;2022-12-20T04:21:25;20.52;;;9.53;;
56824;SDS011;42705;50.326;18.772;2022-12-20T04:26:52;21.52;;;9.80;;
56824;SDS011;42705;50.326;18.772;2022-12-20T04:32:13;20.00;;;8.93;;
56824;SDS011;42705;50.326;18.772;2022-12-20T04:37:35;27.45;;;11.35;;
56824;SDS011;42705;50.326;18.772;2022-12-20T04:42:57;21.77;;;8.98;;
56824;SDS011;42705;50.326;18.772;2022-12-20T04:48:19;25.07;;;10.00;;
56824;SDS011;42705;50.326;18.772;2022-12-20T04:53:40;23.18;;;10.25;;
56824;SDS011;42705;50.326;18.772;2022-12-20T04:59:09;20.75;;;9.23;;
56824;SDS011;42705;50.326;18.772;2022-12-20T05:04:33;27.75;;;11.50;;
56824;SDS011;42705;50.326;18.772;2022-12-20T05:09:54;24.15;;;11.15;;
56824;SDS011;42705;50.326;18.772;2022-12-20T05:15:15;24.75;;;11.38;;
56824;SDS011;42705;50.326;18.772;2022-12-20T05:20:37;24.40;;;10.57;;
56824;SDS011;42705;50.326;18.772;2022-12-20T05:25:59;29.35;;;12.40;;
56824;SDS011;42705;50.326;18.772;2022-12-20T05:31:39;30.12;;;11.70;;
56824;SDS011;42705;50.326;18.772;2022-12-20T05:37:00;24.57;;;10.23;;
56824;SDS011;42705;50.326;18.772;2022-12-20T05:42:23;25.68;;;11.73;;
56824;SDS011;42705;50.326;18.772;2022-12-20T05:47:45;25.70;;;12.17;;
56824;SDS011;42705;50.326;18.772;2022-12-20T05:53:07;24.72;;;11.38;;
56824;SDS011;42705;50.326;18.772;2022-12-20T05:58:29;26.52;;;12.63;;
56824;SDS011;42705;50.326;18.772;2022-12-20T06:03:54;26.12;;;11.12;;
56824;SDS011;42705;50.326;18.772;2022-12-20T06:09:16;24.27;;;11.75;;
56824;SDS011;42705;50.326;18.772;2022-12-20T06:14:39;26.17;;;11.80;;
56824;SDS011;42705;50.326;18.772;2022-12-20T06:20:01;27.40;;;11.93;;
56824;SDS011;42705;50.326;18.772;2022-12-20T06:25:24;29.18;;;11.25;;
56824;SDS011;42705;50.326;18.772;2022-12-20T06:30:52;32.37;;;13.43;;
56824;SDS011;42705;50.326;18.772;2022-12-20T06:36:23;30.70;;;12.23;;
56824;SDS011;42705;50.326;18.772;2022-12-20T06:41:45;27.22;;;12.07;;
56824;SDS011;42705;50.326;18.772;2022-12-20T06:47:06;33.23;;;13.85;;
56824;SDS011;42705;50.326;18.772;2022-12-20T06:52:27;27.58;;;11.63;;
56824;SDS011;42705;50.326;18.772;2022-12-20T06:57:49;29.20;;;12.30;;
56824;SDS011;42705;50.326;18.772;2022-12-20T07:03:11;33.73;;;13.60;;
56824;SDS011;42705;50.326;18.772;2022-12-20T07:08:33;32.28;;;14.10;;
56824;SDS011;42705;50.326;18.772;2022-12-20T07:13:54;29.60;;;13.43;;
56824;SDS011;42705;50.326;18.772;2022-12-20T07:19:16;28.80;;;11.75;;
56824;SDS011;42705;50.326;18.772;2022-12-20T07:24:37;26.23;;;12.58;;
56824;SDS011;42705;50.326;18.772;2022-12-20T07:29:59;35.13;;;14.40;;
56824;SDS011;42705;50.326;18.772;2022-12-20T07:35:20;30.77;;;12.70;;
56824;SDS011;42705;50.326;18.772;2022-12-20T07:40:41;29.45;;;12.98;;
56824;SDS011;42705;50.326;18.772;2022-12-20T07:46:03;31.62;;;13.08;;
56824;SDS011;42705;50.326;18.772;2022-12-20T07:51:30;30.85;;;13.28;;
56824;SDS011;42705;50.326;18.772;2022-12-20T07:56:56;25.23;;;11.57;;
56824;SDS011;42705;50.326;18.772;2022-12-20T08:02:26;30.15;;;13.08;;
56824;SDS011;42705;50.326;18.772;2022-12-20T08:07:48;24.80;;;12.50;;
56824;SDS011;42705;50.326;18.772;2022-12-20T08:13:10;21.52;;;11.08;;
56824;SDS011;42705;50.326;18.772;2022-12-20T08:18:32;25.55;;;12.10;;
56824;SDS011;42705;50.326;18.772;2022-12-20T08:23:53;30.08;;;13.08;;
56824;SDS011;42705;50.326;18.772;2022-12-20T08:29:14;24.05;;;11.25;;
56824;SDS011;42705;50.326;18.772;2022-12-20T08:34:35;27.37;;;13.23;;
56824;SDS011;42705;50.326;18.772;2022-12-20T08:39:56;26.37;;;11.93;;
56824;SDS011;42705;50.326;18.772;2022-12-20T08:45:17;27.13;;;12.27;;
56824;SDS011;42705;50.326;18.772;2022-12-20T08:50:39;26.23;;;12.68;;
56824;SDS011;42705;50.326;18.772;2022-12-20T08:56:05;25.32;;;11.65;;
56824;SDS011;42705;50.326;18.772;2022-12-20T09:01:33;30.90;;;13.30;;
56824;SDS011;42705;50.326;18.772;2022-12-20T09:06:54;31.17;;;12.00;;
56824;SDS011;42705;50.326;18.772;2022-12-20T09:12:15;29.50;;;13.38;;
56824;SDS011;42705;50.326;18.772;2022-12-20T09:17:36;32.50;;;14.15;;
56824;SDS011;42705;50.326;18.772;2022-12-20T09:22:57;29.73;;;13.40;;
56824;SDS011;42705;50.326;18.772;2022-12-20T09:28:19;30.10;;;14.47;;
56824;SDS011;42705;50.326;18.772;2022-12-20T09:33:41;28.83;;;12.63;;
56824;SDS011;42705;50.326;18.772;2022-12-20T09:39:03;24.67;;;12.47;;
56824;SDS011;42705;50.326;18.772;2022-12-20T09:49:51;30.27;;;14.58;;
56824;SDS011;42705;50.326;18.772;2022-12-20T10:01:16;31.55;;;15.55;;
56824;SDS011;42705;50.326;18.772;2022-12-20T10:06:46;26.02;;;12.80;;
56824;SDS011;42705;50.326;18.772;2022-12-20T10:12:28;25.97;;;11.78;;
56824;SDS011;42705;50.326;18.772;2022-12-20T10:24:19;27.25;;;12.53;;
56824;SDS011;42705;50.326;18.772;2022-12-20T10:29:50;24.95;;;11.60;;
56824;SDS011;42705;50.326;18.772;2022-12-20T10:41:10;28.30;;;12.70;;
56824;SDS011;42705;50.326;18.772;2022-12-20T10:46:33;26.73;;;11.63;;
56824;SDS011;42705;50.326;18.772;2022-12-20T10:57:35;23.47;;;10.82;;
56824;SDS011;42705;50.326;18.772;2022-12-20T11:03:06;28.90;;;12.85;;
56824;SDS011;42705;50.326;18.772;2022-12-20T11:08:41;28.47;;;12.85;;
56824;SDS011;42705;50.326;18.772;2022-12-20T11:14:12;25.95;;;12.70;;
56824;SDS011;42705;50.326;18.772;2022-12-20T11:19:48;27.48;;;12.80;;
56824;SDS011;42705;50.326;18.772;2022-12-20T11:43:47;25.95;;;12.15;;
56824;SDS011;42705;50.326;18.772;2022-12-20T12:00:58;23.95;;;11.93;;
56824;SDS011;42705;50.326;18.772;2022-12-20T12:06:28;30.48;;;13.90;;
56824;SDS011;42705;50.326;18.772;2022-12-20T12:12:01;27.65;;;13.68;;
56824;SDS011;42705;50.326;18.772;2022-12-20T12:17:44;28.92;;;13.62;;
56824;SDS011;42705;50.326;18.772;2022-12-20T12:29:05;27.50;;;12.55;;
56824;SDS011;42705;50.326;18.772;2022-12-20T12:34:56;29.72;;;14.38;;
56824;SDS011;42705;50.326;18.772;2022-12-20T12:46:27;26.15;;;11.85;;
56824;SDS011;42705;50.326;18.772;2022-12-20T12:51:53;27.48;;;13.38;;
56824;SDS011;42705;50.326;18.772;2022-12-20T12:57:17;29.45;;;13.88;;
56824;SDS011;42705;50.326;18.772;2022-12-20T13:02:48;29.42;;;13.40;;
56824;SDS011;42705;50.326;18.772;2022-12-20T13:08:13;27.27;;;12.65;;
56824;SDS011;42705;50.326;18.772;2022-12-20T13:13:36;27.77;;;13.25;;
56824;SDS011;42705;50.326;18.772;2022-12-20T13:18:59;29.27;;;13.22;;
56824;SDS011;42705;50.326;18.772;2022-12-20T13:35:57;27.22;;;13.62;;
56824;SDS011;42705;50.326;18.772;2022-12-20T13:47:06;29.20;;;12.70;;
56824;SDS011;42705;50.326;18.772;2022-12-20T13:52:35;29.98;;;13.72;;
56824;SDS011;42705;50.326;18.772;2022-12-20T13:58:10;28.57;;;13.58;;
56824;SDS011;42705;50.326;18.772;2022-12-20T14:03:40;27.75;;;13.98;;
56824;SDS011;42705;50.326;18.772;2022-12-20T14:09:24;28.57;;;14.63;;
56824;SDS011;42705;50.326;18.772;2022-12-20T14:14:49;30.15;;;13.60;;
56824;SDS011;42705;50.326;18.772;2022-12-20T14:42:52;32.15;;;15.43;;
56824;SDS011;42705;50.326;18.772;2022-12-20T14:48:14;29.67;;;13.72;;
56824;SDS011;42705;50.326;18.772;2022-12-20T14:53:36;26.80;;;13.20;;
56824;SDS011;42705;50.326;18.772;2022-12-20T14:59:04;32.63;;;15.13;;
56824;SDS011;42705;50.326;18.772;2022-12-20T15:04:34;37.78;;;15.23;;
56824;SDS011;42705;50.326;18.772;2022-12-20T15:09:59;30.25;;;13.98;;
56824;SDS011;42705;50.326;18.772;2022-12-20T15:15:24;31.10;;;14.18;;
56824;SDS011;42705;50.326;18.772;2022-12-20T15:20:46;32.28;;;13.58;;
56824;SDS011;42705;50.326;18.772;2022-12-20T15:26:14;23.80;;;13.18;;
56824;SDS011;42705;50.326;18.772;2022-12-20T15:31:37;30.97;;;13.93;;
56824;SDS011;42705;50.326;18.772;2022-12-20T15:36:58;34.53;;;15.98;;
56824;SDS011;42705;50.326;18.772;2022-12-20T15:42:21;36.83;;;14.90;;
56824;SDS011;42705;50.326;18.772;2022-12-20T15:47:44;37.20;;;16.27;;
56824;SDS011;42705;50.326;18.772;2022-12-20T15:53:04;39.03;;;15.32;;
56824;SDS011;42705;50.326;18.772;2022-12-20T15:58:30;38.17;;;16.87;;
56824;SDS011;42705;50.326;18.772;2022-12-20T16:03:52;35.37;;;16.63;;
56824;SDS011;42705;50.326;18.772;2022-12-20T16:09:15;34.50;;;16.82;;
56824;SDS011;42705;50.326;18.772;2022-12-20T16:14:38;37.35;;;16.48;;
56824;SDS011;42705;50.326;18.772;2022-12-20T16:19:59;35.98;;;13.78;;
56824;SDS011;42705;50.326;18.772;2022-12-20T16:25:27;37.75;;;17.55;;
56824;SDS011;42705;50.326;18.772;2022-12-20T16:30:51;34.95;;;15.08;;
56824;SDS011;42705;50.326;18.772;2022-12-20T16:36:13;36.05;;;15.55;;
56824;SDS011;42705;50.326;18.772;2022-12-20T16:41:34;40.10;;;17.85;;
56824;SDS011;42705;50.326;18.772;2022-12-20T16:46:57;33.10;;;15.10;;
56824;SDS011;42705;50.326;18.772;2022-12-20T16:52:18;39.40;;;16.75;;
56824;SDS011;42705;50.326;18.772;2022-12-20T17:03:02;38.83;;;17.75;;
56824;SDS011;42705;50.326;18.772;2022-12-20T17:08:26;39.25;;;16.67;;
56824;SDS011;42705;50.326;18.772;2022-12-20T17:13:48;34.38;;;16.20;;
56824;SDS011;42705;50.326;18.772;2022-12-20T17:19:12;36.20;;;15.30;;
56824;SDS011;42705;50.326;18.772;2022-12-20T17:24:33;41.75;;;17.95;;
56824;SDS011;42705;50.326;18.772;2022-12-20T17:29:54;37.78;;;18.27;;
56824;SDS011;42705;50.326;18.772;2022-12-20T17:35:26;39.45;;;17.05;;
56824;SDS011;42705;50.326;18.772;2022-12-20T17:40:50;38.13;;;16.85;;
56824;SDS011;42705;50.326;18.772;2022-12-20T17:46:14;39.70;;;18.00;;
56824;SDS011;42705;50.326;18.772;2022-12-20T17:56:57;37.65;;;15.70;;
56824;SDS011;42705;50.326;18.772;2022-12-20T18:02:23;38.83;;;16.57;;
56824;SDS011;42705;50.326;18.772;2022-12-20T18:07:48;32.60;;;14.95;;
56824;SDS011;42705;50.326;18.772;2022-12-20T18:13:11;34.95;;;15.23;;
56824;SDS011;42705;50.326;18.772;2022-12-20T18:18:36;44.58;;;18.45;;
56824;SDS011;42705;50.326;18.772;2022-12-20T18:23:58;47.88;;;18.65;;
56824;SDS011;42705;50.326;18.772;2022-12-20T18:29:19;41.45;;;19.75;;
56824;SDS011;42705;50.326;18.772;2022-12-20T18:34:43;44.25;;;19.48;;
56824;SDS011;42705;50.326;18.772;2022-12-20T18:40:06;45.75;;;20.88;;
56824;SDS011;42705;50.326;18.772;2022-12-20T18:45:29;46.65;;;19.85;;
56824;SDS011;42705;50.326;18.772;2022-12-20T18:50:50;34.65;;;16.73;;
56824;SDS011;42705;50.326;18.772;2022-12-20T18:56:18;38.38;;;17.62;;
56824;SDS011;42705;50.326;18.772;2022-12-20T19:01:47;31.93;;;15.72;;
56824;SDS011;42705;50.326;18.772;2022-12-20T19:07:08;32.95;;;14.85;;
56824;SDS011;42705;50.326;18.772;2022-12-20T19:12:30;35.40;;;16.70;;
56824;SDS011;42705;50.326;18.772;2022-12-20T19:17:52;38.90;;;16.42;;
56824;SDS011;42705;50.326;18.772;2022-12-20T19:23:13;37.45;;;16.75;;
56824;SDS011;42705;50.326;18.772;2022-12-20T19:28:34;37.55;;;15.32;;
56824;SDS011;42705;50.326;18.772;2022-12-20T19:33:58;43.02;;;17.70;;
56824;SDS011;42705;50.326;18.772;2022-12-20T19:39:21;35.05;;;15.70;;
56824;SDS011;42705;50.326;18.772;2022-12-20T19:44:44;34.80;;;16.15;;
56824;SDS011;42705;50.326;18.772;2022-12-20T19:50:06;33.60;;;15.43;;
56824;SDS011;42705;50.326;18.772;2022-12-20T19:55:28;34.13;;;14.78;;
56824;SDS011;42705;50.326;18.772;2022-12-20T20:00:49;32.90;;;14.98;;
56824;SDS011;42705;50.326;18.772;2022-12-20T20:06:11;32.95;;;14.80;;
56824;SDS011;42705;50.326;18.772;2022-12-20T20:11:33;35.77;;;15.80;;
56824;SDS011;42705;50.326;18.772;2022-12-20T20:16:54;33.92;;;15.00;;
56824;SDS011;42705;50.326;18.772;2022-12-20T20:22:15;37.58;;;14.73;;
56824;SDS011;42705;50.326;18.772;2022-12-20T20:27:36;33.33;;;14.25;;
56824;SDS011;42705;50.326;18.772;2022-12-20T20:32:58;28.05;;;12.80;;
56824;SDS011;42705;50.326;18.772;2022-12-20T20:38:19;29.48;;;13.13;;
56824;SDS011;42705;50.326;18.772;2022-12-20T20:43:41;30.48;;;13.88;;
56824;SDS011;42705;50.326;18.772;2022-12-20T20:49:03;32.17;;;14.05;;
56824;SDS011;42705;50.326;18.772;2022-12-20T20:54:25;32.20;;;14.63;;
56824;SDS011;42705;50.326;18.772;2022-12-20T20:59:46;30.20;;;13.80;;
56824;SDS011;42705;50.326;18.772;2022-12-20T21:05:08;31.15;;;14.10;;
56824;SDS011;42705;50.326;18.772;2022-12-20T21:10:30;30.30;;;13.15;;
56824;SDS011;42705;50.326;18.772;2022-12-20T21:15:55;29.92;;;14.28;;
56824;SDS011;42705;50.326;18.772;2022-12-20T21:21:29;32.55;;;13.75;;
56824;SDS011;42705;50.326;18.772;2022-12-20T21:26:51;30.88;;;14.55;;
56824;SDS011;42705;50.326;18.772;2022-12-20T21:37:35;33.08;;;15.15;;
56824;SDS011;42705;50.326;18.772;2022-12-20T21:42:56;28.77;;;14.13;;
56824;SDS011;42705;50.326;18.772;2022-12-20T21:48:17;36.23;;;16.17;;
56824;SDS011;42705;50.326;18.772;2022-12-20T21:53:46;33.90;;;15.05;;
56824;SDS011;42705;50.326;18.772;2022-12-20T21:59:11;30.47;;;13.13;;
56824;SDS011;42705;50.326;18.772;2022-12-20T22:04:34;32.23;;;14.43;;
56824;SDS011;42705;50.326;18.772;2022-12-20T22:09:55;36.48;;;16.50;;
56824;SDS011;42705;50.326;18.772;2022-12-20T22:15:16;34.70;;;15.68;;
56824;SDS011;42705;50.326;18.772;2022-12-20T22:20:37;33.63;;;14.87;;
56824;SDS011;42705;50.326;18.772;2022-12-20T22:26:02;35.33;;;14.73;;
56824;SDS011;42705;50.326;18.772;2022-12-20T22:31:30;34.40;;;15.40;;
56824;SDS011;42705;50.326;18.772;2022-12-20T22:36:51;34.27;;;14.75;;
56824;SDS011;42705;50.326;18.772;2022-12-20T22:42:14;35.63;;;15.45;;
56824;SDS011;42705;50.326;18.772;2022-12-20T22:47:35;36.80;;;16.40;;
56824;SDS011;42705;50.326;18.772;2022-12-20T22:52:57;42.93;;;18.65;;
56824;SDS011;42705;50.326;18.772;2022-12-20T22:58:18;42.05;;;18.45;;
56824;SDS011;42705;50.326;18.772;2022-12-20T23:03:40;40.60;;;18.45;;
56824;SDS011;42705;50.326;18.772;2022-12-20T23:09:01;38.67;;;16.62;;
56824;SDS011;42705;50.326;18.772;2022-12-20T23:14:23;33.23;;;15.90;;
56824;SDS011;42705;50.326;18.772;2022-12-20T23:20:03;41.50;;;18.00;;
56824;SDS011;42705;50.326;18.772;2022-12-20T23:25:44;41.75;;;19.45;;
56824;SDS011;42705;50.326;18.772;2022-12-20T23:31:05;42.70;;;18.12;;
56824;SDS011;42705;50.326;18.772;2022-12-20T23:36:28;34.08;;;15.75;;
56824;SDS011;42705;50.326;18.772;2022-12-20T23:41:50;34.78;;;14.73;;
56824;SDS011;42705;50.326;18.772;2022-12-20T23:47:11;32.15;;;15.08;;
56824;SDS011;42705;50.326;18.772;2022-12-20T23:52:32;33.63;;;15.43;;
56824;SDS011;42705;50.326;18.772;2022-12-20T23:57:53;28.07;;;13.62;;
